createdAt,value
2023-05-19T00:00:50.051Z,4.47
2023-05-19T00:05:57.218Z,6.70
2023-05-19T00:10:59.169Z,4.50
2023-05-19T00:16:01.256Z,3.88
2023-05-19T00:21:03.034Z,3.50
2023-05-19T00:26:04.779Z,4.15
2023-05-19T00:31:06.944Z,4.15
2023-05-19T00:36:09.042Z,3.50
2023-05-19T00:41:11.051Z,6.28
2023-05-19T00:46:12.801Z,4.75
2023-05-19T00:51:16.818Z,6.10
2023-05-19T00:56:19.205Z,5.15
2023-05-19T01:01:21.823Z,5.18
2023-05-19T01:06:25.569Z,4.72
2023-05-19T01:11:27.693Z,3.67
2023-05-19T01:16:32.685Z,4.72
2023-05-19T01:21:48.885Z,4.57
2023-05-19T01:27:00.164Z,7.50
2023-05-19T01:32:04.875Z,6.25
2023-05-19T01:37:08.558Z,6.28
2023-05-19T01:42:11.093Z,8.68
2023-05-19T01:47:13.191Z,7.95
2023-05-19T01:52:14.861Z,6.78
2023-05-19T01:57:24.810Z,7.25
2023-05-19T02:03:00.836Z,6.53
2023-05-19T02:08:25.788Z,3.65
2023-05-19T02:18:33.376Z,4.55
2023-05-19T02:23:35.051Z,4.78
2023-05-19T02:28:36.803Z,5.30
2023-05-19T02:33:38.479Z,6.72
2023-05-19T02:38:40.549Z,8.52
2023-05-19T02:43:42.307Z,5.00
2023-05-19T02:48:44.096Z,6.78
2023-05-19T02:53:45.947Z,6.70
2023-05-19T02:58:47.736Z,5.57
2023-05-19T03:03:49.605Z,7.72
2023-05-19T03:08:51.421Z,4.70
2023-05-19T03:13:53.133Z,7.10
2023-05-19T03:18:56.005Z,4.82
2023-05-19T03:23:57.755Z,5.70
2023-05-19T03:28:59.998Z,3.83
2023-05-19T03:34:02.120Z,5.85
2023-05-19T03:39:04.110Z,5.10
2023-05-19T03:44:06.181Z,4.82
2023-05-19T03:49:08.017Z,6.18
2023-05-19T03:54:28.100Z,3.92
2023-05-19T03:59:29.876Z,7.05
2023-05-19T04:04:31.692Z,5.38
2023-05-19T04:09:35.355Z,5.10
2023-05-19T04:14:37.086Z,6.03
2023-05-19T04:19:38.795Z,5.88
2023-05-19T04:24:40.524Z,4.72
2023-05-19T04:29:42.639Z,4.38
2023-05-19T04:34:46.051Z,9.50
2023-05-19T04:39:54.785Z,4.85
2023-05-19T04:44:59.461Z,5.30
2023-05-19T04:50:04.876Z,6.90
2023-05-19T04:55:06.953Z,5.82
2023-05-19T05:00:12.794Z,7.65
2023-05-19T05:05:27.521Z,4.32
2023-05-19T05:10:29.311Z,5.28
2023-05-19T05:15:31.565Z,6.85
2023-05-19T05:20:36.228Z,5.35
2023-05-19T05:25:38.528Z,6.50
2023-05-19T05:30:41.474Z,4.43
2023-05-19T05:35:43.294Z,4.65
2023-05-19T05:40:47.423Z,3.72
2023-05-19T05:45:49.396Z,5.40
2023-05-19T05:50:52.348Z,4.55
2023-05-19T05:55:58.556Z,3.90
2023-05-19T06:01:10.601Z,5.50
2023-05-19T06:11:15.168Z,5.13
2023-05-19T06:16:17.067Z,5.45
2023-05-19T06:21:21.907Z,5.18
2023-05-19T06:26:23.725Z,4.47
2023-05-19T06:31:26.599Z,4.57
2023-05-19T06:36:31.463Z,5.15
2023-05-19T06:41:34.749Z,4.75
2023-05-19T06:46:36.916Z,4.85
2023-05-19T06:51:39.411Z,4.57
2023-05-19T06:56:41.140Z,4.82
2023-05-19T07:01:42.894Z,6.05
2023-05-19T07:06:45.054Z,5.47
2023-05-19T07:11:47.008Z,5.10
2023-05-19T07:16:48.914Z,5.05
2023-05-19T07:21:52.001Z,5.30
2023-05-19T07:26:53.822Z,5.53
2023-05-19T07:31:57.969Z,5.20
2023-05-19T07:37:00.252Z,6.10
2023-05-19T07:42:02.193Z,6.82
2023-05-19T07:47:03.997Z,5.55
2023-05-19T07:52:06.233Z,5.60
2023-05-19T07:57:07.910Z,7.07
2023-05-19T08:02:09.626Z,5.00
2023-05-19T08:07:11.372Z,4.70
2023-05-19T08:12:13.062Z,5.68
2023-05-19T08:17:14.761Z,4.18
2023-05-19T08:22:16.611Z,4.25
2023-05-19T08:27:18.332Z,5.80
2023-05-19T08:32:20.020Z,7.18
2023-05-19T08:37:21.727Z,4.28
2023-05-19T08:42:23.490Z,4.65
2023-05-19T08:47:25.423Z,3.75
2023-05-19T08:58:11.757Z,5.82
2023-05-19T09:03:18.532Z,5.22
2023-05-19T09:08:24.677Z,5.72
2023-05-19T09:13:26.709Z,3.80
2023-05-19T09:18:28.403Z,5.75
2023-05-19T09:23:32.631Z,4.68
2023-05-19T09:28:36.836Z,5.43
2023-05-19T09:33:42.871Z,7.30
2023-05-19T09:38:46.258Z,4.25
2023-05-19T09:43:54.946Z,4.38
2023-05-19T09:49:00.354Z,5.35
2023-05-19T09:54:02.116Z,4.32
2023-05-19T09:59:04.005Z,5.03
2023-05-19T10:04:06.176Z,3.95
2023-05-19T10:09:08.282Z,5.05
2023-05-19T10:14:10.193Z,5.18
2023-05-19T10:19:13.098Z,5.07
2023-05-19T10:24:14.812Z,3.67
2023-05-19T10:29:20.173Z,3.78
2023-05-19T10:35:01.937Z,5.57
2023-05-19T10:40:13.766Z,3.88
2023-05-19T10:45:19.547Z,3.50
2023-05-19T10:55:46.475Z,3.80
2023-05-19T11:00:48.114Z,4.88
2023-05-19T11:05:52.257Z,4.70
2023-05-19T11:10:53.938Z,4.00
2023-05-19T11:15:56.296Z,3.78
2023-05-19T11:21:02.328Z,5.90
2023-05-19T11:26:04.289Z,4.85
2023-05-19T11:31:08.154Z,3.78
2023-05-19T11:36:10.148Z,3.70
2023-05-19T11:41:11.822Z,4.85
2023-05-19T11:46:14.350Z,3.97
2023-05-19T11:51:16.452Z,3.35
2023-05-19T11:56:18.188Z,4.63
2023-05-19T12:01:25.732Z,4.95
2023-05-19T12:06:28.227Z,5.65
2023-05-19T12:11:31.771Z,4.38
2023-05-19T12:16:35.378Z,3.65
2023-05-19T12:21:37.330Z,4.85
2023-05-19T12:26:39.113Z,6.30
2023-05-19T12:31:41.409Z,4.45
2023-05-19T12:36:43.140Z,3.60
2023-05-19T12:41:45.659Z,4.43
2023-05-19T12:46:47.683Z,6.47
2023-05-19T12:51:55.591Z,5.00
2023-05-19T12:56:57.837Z,6.03
2023-05-19T13:01:59.671Z,5.50
2023-05-19T13:07:01.772Z,3.85
2023-05-19T13:12:04.857Z,4.30
2023-05-19T13:17:06.605Z,4.32
2023-05-19T13:22:08.377Z,3.55
2023-05-19T13:27:10.077Z,4.10
2023-05-19T13:32:11.751Z,5.10
2023-05-19T13:37:13.574Z,4.78
2023-05-19T13:42:16.419Z,4.55
2023-05-19T13:47:18.470Z,5.93
2023-05-19T13:52:21.251Z,7.00
2023-05-19T13:57:26.468Z,5.70
2023-05-19T14:02:28.466Z,5.13
2023-05-19T14:07:30.645Z,5.43
2023-05-19T14:12:41.365Z,4.25
2023-05-19T14:17:53.850Z,7.60
2023-05-19T14:22:55.796Z,5.05
2023-05-19T14:27:57.453Z,5.18
2023-05-19T14:32:59.232Z,7.13
2023-05-19T14:38:01.054Z,4.25
2023-05-19T14:43:02.849Z,6.32
2023-05-19T14:48:05.766Z,6.05
2023-05-19T14:53:07.585Z,7.18
2023-05-19T14:58:23.515Z,5.93
2023-05-19T15:03:29.091Z,7.10
2023-05-19T15:08:30.866Z,5.95
2023-05-19T15:13:32.626Z,6.88
2023-05-19T15:18:34.502Z,6.05
2023-05-19T15:23:36.365Z,5.72
2023-05-19T15:28:38.028Z,7.20
2023-05-19T15:33:39.707Z,4.55
2023-05-19T15:38:41.413Z,6.18
2023-05-19T15:43:46.192Z,7.22
2023-05-19T15:48:48.069Z,5.82
2023-05-19T15:53:49.736Z,8.05
2023-05-19T15:58:51.468Z,9.05
2023-05-19T16:03:53.374Z,8.90
2023-05-19T16:08:55.448Z,8.13
2023-05-19T16:13:57.246Z,7.07
2023-05-19T16:18:58.974Z,6.95
2023-05-19T16:24:00.736Z,7.25
2023-05-19T16:29:02.476Z,8.85
2023-05-19T16:34:04.250Z,6.20
2023-05-19T16:39:05.952Z,8.90
2023-05-19T16:44:07.718Z,4.68
2023-05-19T16:49:11.206Z,4.28
2023-05-19T16:54:12.935Z,6.72
2023-05-19T16:59:14.676Z,5.28
2023-05-19T17:04:16.384Z,6.63
2023-05-19T17:09:18.183Z,5.50
2023-05-19T17:14:20.024Z,5.38
2023-05-19T17:19:21.878Z,4.95
2023-05-19T17:24:23.643Z,5.15
2023-05-19T17:29:27.742Z,6.63
2023-05-19T17:34:30.090Z,5.22
2023-05-19T17:39:31.764Z,6.50
2023-05-19T17:44:33.739Z,5.53
2023-05-19T17:49:35.727Z,5.15
2023-05-19T17:54:37.715Z,6.05
2023-05-19T17:59:39.608Z,7.18
2023-05-19T18:04:41.911Z,6.43
2023-05-19T18:09:48.039Z,6.18
2023-05-19T18:14:50.181Z,5.40
2023-05-19T18:19:51.927Z,5.20
2023-05-19T18:24:53.731Z,7.38
2023-05-19T18:29:55.559Z,8.18
2023-05-19T18:34:57.247Z,7.50
2023-05-19T18:40:00.063Z,7.30
2023-05-19T18:45:01.766Z,6.85
2023-05-19T18:50:04.330Z,8.63
2023-05-19T18:55:07.178Z,8.15
2023-05-19T19:00:09.338Z,7.55
2023-05-19T19:05:11.163Z,7.50
2023-05-19T19:10:12.874Z,9.07
2023-05-19T19:15:14.570Z,10.65
2023-05-19T19:20:16.359Z,9.52
2023-05-19T19:25:18.134Z,8.98
2023-05-19T19:30:19.918Z,8.93
2023-05-19T19:35:21.877Z,10.88
2023-05-19T19:40:24.901Z,10.68
2023-05-19T19:45:26.565Z,11.77
2023-05-19T19:50:28.523Z,12.07
2023-05-19T19:55:30.908Z,11.30
2023-05-19T20:00:32.697Z,11.35
2023-05-19T20:05:34.620Z,13.05
2023-05-19T20:10:36.392Z,13.07
2023-05-19T20:15:38.983Z,12.50
2023-05-19T20:20:41.352Z,12.27
2023-05-19T20:25:54.743Z,13.02
2023-05-19T20:31:05.129Z,14.60
2023-05-19T20:36:07.633Z,12.38
2023-05-19T20:41:09.373Z,14.25
2023-05-19T20:46:11.227Z,15.02
2023-05-19T20:51:13.427Z,15.63
2023-05-19T20:56:15.167Z,16.08
2023-05-19T21:01:17.264Z,13.48
2023-05-19T21:06:19.039Z,18.42
2023-05-19T21:11:21.159Z,14.90
2023-05-19T21:16:23.246Z,13.70
2023-05-19T21:21:25.273Z,13.50
2023-05-19T21:26:27.176Z,13.88
2023-05-19T21:31:28.971Z,14.40
2023-05-19T21:36:31.811Z,12.55
2023-05-19T21:41:33.525Z,14.57
2023-05-19T21:46:35.281Z,12.80
2023-05-19T21:51:37.076Z,14.68
2023-05-19T21:56:38.785Z,16.77
2023-05-19T22:01:40.806Z,14.95
2023-05-19T22:06:42.809Z,12.85
2023-05-19T22:11:44.440Z,10.95
2023-05-19T22:16:47.468Z,12.73
2023-05-19T22:21:50.385Z,14.77
2023-05-19T22:26:55.472Z,11.57
2023-05-19T22:31:57.093Z,13.90
2023-05-19T22:36:58.752Z,15.27
2023-05-19T22:42:00.482Z,13.95
2023-05-19T22:47:02.204Z,13.07
2023-05-19T22:52:04.065Z,15.23
2023-05-19T22:57:06.473Z,17.17
2023-05-19T23:02:08.334Z,14.35
2023-05-19T23:07:10.085Z,13.77
2023-05-19T23:12:11.788Z,13.00
2023-05-19T23:17:13.657Z,14.48
2023-05-19T23:22:15.747Z,14.93
2023-05-19T23:27:17.434Z,15.55
2023-05-19T23:32:19.147Z,15.95
2023-05-19T23:37:21.226Z,14.57
2023-05-19T23:42:22.912Z,19.73
2023-05-19T23:47:24.644Z,17.33
2023-05-19T23:52:26.393Z,19.67
2023-05-19T23:57:28.043Z,21.70
